createdAt,value
2022-09-13T00:00:16.463Z,10.65
2022-09-13T00:02:20.959Z,13.75
2022-09-13T00:04:26.995Z,10.55
2022-09-13T00:06:31.090Z,13.32
2022-09-13T00:08:35.473Z,11.88
2022-09-13T00:10:41.339Z,11.07
2022-09-13T00:12:45.803Z,7.28
2022-09-13T00:14:50.436Z,15.98
2022-09-13T00:16:55.198Z,11.75
2022-09-13T00:19:01.617Z,11.48
2022-09-13T00:21:09.859Z,9.05
2022-09-13T00:23:14.785Z,10.07
2022-09-13T00:25:19.798Z,15.20
2022-09-13T00:27:24.001Z,22.20
2022-09-13T00:29:29.194Z,16.05
2022-09-13T00:31:33.568Z,17.10
2022-09-13T00:33:38.510Z,20.95
2022-09-13T00:35:43.049Z,22.52
2022-09-13T00:37:49.355Z,19.02
2022-09-13T00:39:53.565Z,20.80
2022-09-13T00:41:58.499Z,21.00
2022-09-13T00:44:03.814Z,20.25
2022-09-13T00:46:08.851Z,22.45
2022-09-13T00:48:20.214Z,20.65
2022-09-13T00:50:30.241Z,23.92
2022-09-13T00:52:36.930Z,24.55
2022-09-13T00:54:45.922Z,27.67
2022-09-13T00:56:55.169Z,20.73
2022-09-13T00:59:03.506Z,20.88
2022-09-13T01:01:11.441Z,24.23
2022-09-13T01:03:17.263Z,18.08
2022-09-13T01:05:26.648Z,19.02
2022-09-13T01:07:30.812Z,17.48
2022-09-13T01:09:40.200Z,14.82
2022-09-13T01:11:50.931Z,20.65
2022-09-13T01:13:56.666Z,19.10
2022-09-13T01:16:01.693Z,16.65
2022-09-13T01:18:07.780Z,15.48
2022-09-13T01:20:14.895Z,23.35
2022-09-13T01:22:52.055Z,13.15
2022-09-13T01:25:23.937Z,20.27
2022-09-13T01:27:39.426Z,21.52
2022-09-13T01:30:14.512Z,21.30
2022-09-13T01:32:29.540Z,10.15
2022-09-13T01:34:47.290Z,15.82
2022-09-13T01:37:12.383Z,16.67
2022-09-13T01:39:23.698Z,13.65
2022-09-13T01:41:44.203Z,11.25
2022-09-13T01:43:58.451Z,10.48
2022-09-13T01:46:07.916Z,20.17
2022-09-13T01:48:20.399Z,11.60
2022-09-13T01:50:33.433Z,13.07
2022-09-13T01:52:46.260Z,14.95
2022-09-13T01:54:59.281Z,15.50
2022-09-13T01:57:11.193Z,14.95
2022-09-13T01:59:20.402Z,17.15
2022-09-13T02:01:30.396Z,15.60
2022-09-13T02:03:41.334Z,21.00
2022-09-13T02:05:52.062Z,28.30
2022-09-13T02:08:01.469Z,13.43
2022-09-13T02:10:10.225Z,18.25
2022-09-13T02:12:19.874Z,15.90
2022-09-13T02:14:30.300Z,18.73
2022-09-13T02:16:40.117Z,10.38
2022-09-13T02:18:49.067Z,11.27
2022-09-13T02:20:56.479Z,8.73
2022-09-13T02:23:04.685Z,11.27
2022-09-13T02:25:11.819Z,14.35
2022-09-13T02:27:20.703Z,18.00
2022-09-13T02:29:29.174Z,15.77
2022-09-13T02:31:42.106Z,11.82
2022-09-13T02:33:51.143Z,12.50
2022-09-13T02:36:01.189Z,10.15
2022-09-13T02:38:10.616Z,12.05
2022-09-13T02:40:23.571Z,16.02
2022-09-13T02:42:36.748Z,16.95
2022-09-13T02:44:45.126Z,15.52
2022-09-13T02:47:14.934Z,16.60
2022-09-13T02:49:26.896Z,12.60
2022-09-13T02:51:36.282Z,9.88
2022-09-13T02:53:45.821Z,17.00
2022-09-13T02:55:56.725Z,7.63
2022-09-13T02:58:09.086Z,15.35
2022-09-13T03:00:14.131Z,8.88
2022-09-13T03:02:24.651Z,8.00
2022-09-13T03:04:30.024Z,10.68
2022-09-13T03:06:34.524Z,15.52
2022-09-13T03:08:39.693Z,11.73
2022-09-13T03:10:53.124Z,14.23
2022-09-13T03:13:37.624Z,20.75
2022-09-13T03:15:53.793Z,10.52
2022-09-13T03:18:11.746Z,16.35
2022-09-13T03:20:26.463Z,10.48
2022-09-13T03:23:00.580Z,9.88
2022-09-13T03:25:10.913Z,11.90
2022-09-13T03:27:20.986Z,12.75
2022-09-13T03:29:34.848Z,10.88
2022-09-13T03:31:46.364Z,13.85
2022-09-13T03:34:00.991Z,12.73
2022-09-13T03:36:13.737Z,13.45
2022-09-13T03:38:21.568Z,14.98
2022-09-13T03:40:37.808Z,8.05
2022-09-13T03:42:48.516Z,7.70
2022-09-13T03:44:56.320Z,9.65
2022-09-13T03:47:05.697Z,12.75
2022-09-13T03:49:15.591Z,11.15
2022-09-13T03:51:20.682Z,9.63
2022-09-13T03:53:28.772Z,16.05
2022-09-13T03:55:36.694Z,8.20
2022-09-13T03:57:40.955Z,16.40
2022-09-13T03:59:48.346Z,7.43
2022-09-13T04:01:52.879Z,9.95
2022-09-13T04:03:57.454Z,6.88
2022-09-13T04:06:03.203Z,11.73
2022-09-13T04:08:09.289Z,12.98
2022-09-13T04:10:14.654Z,6.88
2022-09-13T04:12:20.726Z,10.95
2022-09-13T04:14:26.977Z,13.00
2022-09-13T04:16:31.298Z,7.63
2022-09-13T04:18:36.113Z,6.28
2022-09-13T04:20:40.359Z,7.15
2022-09-13T04:22:45.679Z,7.50
2022-09-13T04:24:49.451Z,5.15
2022-09-13T04:26:53.377Z,10.30
2022-09-13T04:28:57.116Z,11.20
2022-09-13T04:31:00.611Z,9.82
2022-09-13T04:33:04.195Z,11.75
2022-09-13T04:35:08.560Z,6.22
2022-09-13T04:37:12.387Z,9.38
2022-09-13T04:39:17.201Z,10.75
2022-09-13T04:41:20.830Z,9.68
2022-09-13T04:43:24.858Z,9.52
2022-09-13T04:45:28.627Z,15.23
2022-09-13T04:47:32.337Z,13.57
2022-09-13T04:49:36.048Z,10.80
2022-09-13T04:51:39.633Z,8.88
2022-09-13T04:53:43.255Z,9.00
2022-09-13T04:55:48.095Z,13.90
2022-09-13T04:57:55.915Z,14.07
2022-09-13T04:59:59.367Z,12.93
2022-09-13T05:02:02.900Z,9.90
2022-09-13T05:04:08.005Z,6.75
2022-09-13T05:06:14.319Z,8.00
2022-09-13T05:08:17.858Z,15.85
2022-09-13T05:10:21.727Z,12.93
2022-09-13T05:12:26.574Z,10.43
2022-09-13T05:14:30.063Z,8.27
2022-09-13T05:16:35.307Z,11.13
2022-09-13T05:18:42.034Z,19.13
2022-09-13T05:20:48.556Z,13.95
2022-09-13T05:22:52.121Z,13.52
2022-09-13T05:24:56.155Z,15.32
2022-09-13T05:26:59.938Z,15.13
2022-09-13T05:29:06.089Z,25.73
2022-09-13T05:31:14.306Z,18.33
2022-09-13T05:33:17.673Z,19.80
2022-09-13T05:35:21.307Z,24.55
2022-09-13T05:37:24.779Z,13.52
2022-09-13T05:39:36.377Z,23.65
2022-09-13T05:41:47.638Z,25.77
2022-09-13T05:43:54.135Z,21.63
2022-09-13T05:46:05.250Z,18.40
2022-09-13T05:48:08.902Z,14.07
2022-09-13T05:50:27.244Z,15.57
2022-09-13T05:52:36.302Z,9.80
2022-09-13T05:54:39.847Z,19.25
2022-09-13T05:56:43.469Z,9.90
2022-09-13T05:58:49.427Z,9.60
2022-09-13T06:00:55.476Z,23.60
2022-09-13T06:03:00.948Z,21.20
2022-09-13T06:05:04.644Z,33.55
2022-09-13T06:07:08.110Z,15.88
2022-09-13T06:09:13.428Z,21.83
2022-09-13T06:11:17.027Z,13.70
2022-09-13T06:13:20.342Z,13.73
2022-09-13T06:15:23.799Z,24.58
2022-09-13T06:17:27.388Z,20.52
2022-09-13T06:19:32.289Z,10.20
2022-09-13T06:21:36.270Z,16.75
2022-09-13T06:23:40.076Z,9.75
2022-09-13T06:25:44.400Z,17.45
2022-09-13T06:27:50.003Z,23.30
2022-09-13T06:29:54.616Z,19.27
2022-09-13T06:31:58.290Z,15.52
2022-09-13T06:34:03.581Z,28.35
2022-09-13T06:36:10.730Z,12.07
2022-09-13T06:38:14.163Z,20.85
2022-09-13T06:40:21.802Z,11.48
2022-09-13T06:42:28.019Z,12.93
2022-09-13T06:44:31.372Z,18.13
2022-09-13T06:46:37.085Z,28.40
2022-09-13T06:48:42.126Z,19.70
2022-09-13T06:50:45.916Z,13.57
2022-09-13T06:52:50.585Z,29.00
2022-09-13T06:54:53.912Z,17.25
2022-09-13T06:57:04.742Z,25.30
2022-09-13T06:59:10.590Z,18.70
2022-09-13T07:01:16.361Z,18.58
2022-09-13T07:03:20.355Z,29.05
2022-09-13T07:05:24.503Z,32.20
2022-09-13T07:07:28.751Z,21.88
2022-09-13T07:09:34.495Z,14.40
2022-09-13T07:11:40.710Z,24.40
2022-09-13T07:13:44.857Z,24.67
2022-09-13T07:15:48.808Z,20.58
2022-09-13T07:17:52.395Z,7.55
2022-09-13T07:19:55.979Z,18.15
2022-09-13T07:22:00.148Z,40.58
2022-09-13T07:24:04.450Z,20.08
2022-09-13T07:26:10.065Z,9.73
2022-09-13T07:28:13.817Z,16.85
2022-09-13T07:30:17.114Z,24.77
2022-09-13T07:32:21.278Z,15.00
2022-09-13T07:34:26.863Z,22.10
2022-09-13T07:36:33.076Z,18.33
2022-09-13T07:38:37.900Z,15.77
2022-09-13T07:40:41.708Z,11.23
2022-09-13T07:42:47.025Z,9.30
2022-09-13T07:44:50.848Z,8.50
2022-09-13T07:46:54.640Z,8.40
2022-09-13T07:48:59.249Z,13.43
2022-09-13T07:51:04.979Z,11.75
2022-09-13T07:53:08.826Z,16.35
2022-09-13T07:55:12.573Z,10.02
2022-09-13T07:57:16.487Z,9.48
2022-09-13T07:59:21.631Z,12.93
2022-09-13T08:01:27.473Z,8.88
2022-09-13T08:03:31.669Z,14.70
2022-09-13T08:05:40.755Z,15.32
2022-09-13T08:07:44.780Z,8.65
2022-09-13T08:09:48.738Z,10.27
2022-09-13T08:11:53.657Z,13.48
2022-09-13T08:13:58.436Z,20.52
2022-09-13T08:16:06.685Z,17.75
2022-09-13T08:18:10.866Z,30.63
2022-09-13T08:20:14.863Z,8.95
2022-09-13T08:22:19.123Z,27.90
2022-09-13T08:24:23.470Z,18.88
2022-09-13T08:26:27.773Z,30.52
2022-09-13T08:28:32.898Z,13.23
2022-09-13T08:30:37.467Z,16.48
2022-09-13T08:32:42.753Z,26.45
2022-09-13T08:34:47.057Z,12.90
2022-09-13T08:36:50.930Z,16.42
2022-09-13T08:38:58.015Z,15.50
2022-09-13T08:41:06.651Z,13.25
2022-09-13T08:43:24.012Z,12.88
2022-09-13T08:45:27.735Z,14.77
2022-09-13T08:47:45.112Z,20.02
2022-09-13T08:49:52.396Z,24.63
2022-09-13T08:52:00.413Z,19.25
2022-09-13T08:54:04.986Z,10.20
2022-09-13T08:56:13.027Z,14.35
2022-09-13T08:58:32.209Z,17.13
2022-09-13T09:00:41.427Z,11.50
2022-09-13T09:03:03.540Z,17.27
2022-09-13T09:05:16.936Z,12.88
2022-09-13T09:07:25.776Z,26.77
2022-09-13T09:09:41.844Z,17.42
2022-09-13T09:11:52.547Z,32.10
2022-09-13T09:14:05.387Z,13.35
2022-09-13T09:16:21.241Z,12.82
2022-09-13T09:18:32.991Z,17.80
2022-09-13T09:20:42.691Z,12.63
2022-09-13T09:22:48.952Z,8.40
2022-09-13T09:24:56.495Z,15.65
2022-09-13T09:27:03.482Z,17.98
2022-09-13T09:29:20.678Z,14.65
2022-09-13T09:31:37.484Z,12.15
2022-09-13T09:33:55.393Z,13.80
2022-09-13T09:36:07.401Z,9.25
2022-09-13T09:38:31.755Z,14.50
2022-09-13T09:40:38.632Z,12.50
2022-09-13T09:42:45.255Z,11.32
2022-09-13T09:44:53.062Z,12.43
2022-09-13T09:47:01.309Z,10.80
2022-09-13T09:49:37.249Z,10.38
2022-09-13T09:51:42.078Z,16.10
2022-09-13T09:53:49.132Z,15.00
2022-09-13T09:55:57.662Z,16.95
2022-09-13T09:58:04.651Z,14.07
2022-09-13T10:00:15.008Z,9.93
2022-09-13T10:02:21.862Z,12.90
2022-09-13T10:04:27.685Z,8.65
2022-09-13T10:06:32.877Z,10.15
2022-09-13T10:08:39.853Z,8.10
2022-09-13T10:10:46.265Z,9.32
2022-09-13T10:12:54.378Z,9.88
2022-09-13T10:15:07.241Z,11.07
2022-09-13T10:17:21.911Z,8.00
2022-09-13T10:19:28.670Z,17.30
2022-09-13T10:21:32.723Z,9.40
2022-09-13T10:23:38.053Z,8.30
2022-09-13T10:25:47.866Z,7.05
2022-09-13T10:27:57.186Z,8.48
2022-09-13T10:30:04.191Z,8.25
2022-09-13T10:32:13.203Z,6.88
2022-09-13T10:34:22.642Z,18.48
2022-09-13T10:36:51.668Z,16.65
2022-09-13T10:39:01.024Z,18.10
2022-09-13T10:41:10.040Z,12.25
2022-09-13T10:43:20.508Z,9.07
2022-09-13T10:45:26.836Z,12.00
2022-09-13T10:47:36.128Z,10.43
2022-09-13T10:49:44.418Z,10.77
2022-09-13T10:51:49.995Z,12.05
2022-09-13T10:54:08.857Z,14.82
2022-09-13T10:56:23.202Z,5.38
2022-09-13T10:58:27.151Z,20.20
2022-09-13T11:00:41.025Z,15.82
2022-09-13T11:02:57.372Z,8.43
2022-09-13T11:05:22.862Z,14.93
2022-09-13T11:07:45.683Z,9.07
2022-09-13T11:09:58.422Z,12.05
2022-09-13T11:12:12.117Z,8.35
2022-09-13T11:14:29.051Z,11.02
2022-09-13T11:16:46.395Z,9.07
2022-09-13T11:19:18.931Z,12.50
2022-09-13T11:21:44.084Z,7.20
2022-09-13T11:24:04.560Z,4.60
2022-09-13T11:26:25.770Z,12.07
2022-09-13T11:28:42.537Z,14.25
2022-09-13T11:31:04.654Z,10.80
2022-09-13T11:33:24.924Z,12.70
2022-09-13T11:35:44.569Z,7.10
2022-09-13T11:37:59.413Z,8.77
2022-09-13T11:40:24.310Z,9.73
2022-09-13T11:42:41.995Z,7.38
2022-09-13T11:45:30.139Z,9.65
2022-09-13T11:47:48.790Z,5.75
2022-09-13T11:50:11.823Z,9.90
2022-09-13T11:52:31.333Z,10.05
2022-09-13T11:54:53.866Z,9.48
2022-09-13T11:57:04.425Z,17.08
2022-09-13T11:59:20.141Z,8.00
2022-09-13T12:01:29.624Z,7.57
2022-09-13T12:03:41.497Z,10.45
2022-09-13T12:05:49.572Z,13.45
2022-09-13T12:07:58.351Z,8.43
2022-09-13T12:10:07.820Z,7.22
2022-09-13T12:12:15.674Z,10.40
2022-09-13T12:14:23.893Z,5.82
2022-09-13T12:16:36.024Z,8.93
2022-09-13T12:18:46.172Z,10.45
2022-09-13T12:20:53.122Z,6.40
2022-09-13T12:23:00.011Z,8.73
2022-09-13T12:25:08.152Z,7.35
2022-09-13T12:27:23.670Z,8.15
2022-09-13T12:29:36.878Z,7.95
2022-09-13T12:33:48.465Z,4.53
2022-09-13T12:36:32.984Z,9.38
2022-09-13T12:39:11.895Z,7.07
2022-09-13T12:41:38.120Z,4.85
2022-09-13T12:43:58.949Z,6.80
2022-09-13T12:46:28.513Z,7.10
2022-09-13T12:48:55.967Z,8.43
2022-09-13T12:51:10.430Z,7.55
2022-09-13T12:53:36.189Z,10.20
2022-09-13T12:56:11.537Z,5.53
2022-09-13T12:58:32.705Z,8.85
2022-09-13T13:00:43.711Z,15.57
2022-09-13T13:02:59.966Z,5.22
2022-09-13T13:05:07.707Z,8.82
2022-09-13T13:07:23.048Z,13.32
2022-09-13T13:09:39.032Z,8.27
2022-09-13T13:11:47.500Z,8.20
2022-09-13T13:13:58.883Z,6.47
2022-09-13T13:16:23.321Z,7.43
2022-09-13T13:18:31.768Z,11.70
2022-09-13T13:21:09.779Z,12.50
2022-09-13T13:23:23.939Z,6.38
2022-09-13T13:25:36.237Z,6.40
2022-09-13T13:27:48.627Z,7.03
2022-09-13T13:30:54.666Z,6.90
2022-09-13T13:33:19.403Z,6.15
2022-09-13T13:35:32.621Z,7.13
2022-09-13T13:39:44.704Z,4.72
2022-09-13T13:41:56.287Z,5.40
2022-09-13T13:44:00.715Z,5.70
2022-09-13T13:46:28.434Z,5.10
2022-09-13T13:48:42.377Z,6.22
2022-09-13T13:51:19.600Z,9.70
2022-09-13T13:53:35.143Z,6.35
2022-09-13T13:55:47.656Z,6.78
2022-09-13T13:58:01.371Z,11.07
2022-09-13T14:00:16.298Z,6.22
2022-09-13T14:02:24.827Z,7.57
2022-09-13T14:04:59.382Z,9.23
2022-09-13T14:07:21.309Z,7.28
2022-09-13T14:09:36.934Z,9.30
2022-09-13T14:11:53.808Z,5.65
2022-09-13T14:14:13.841Z,8.02
2022-09-13T14:16:35.739Z,3.50
2022-09-13T14:19:24.605Z,7.50
2022-09-13T14:21:31.928Z,7.30
2022-09-13T14:23:36.272Z,6.95
2022-09-13T14:25:40.967Z,6.00
2022-09-13T14:27:46.172Z,6.35
2022-09-13T14:29:52.494Z,10.80
2022-09-13T14:32:03.990Z,4.70
2022-09-13T14:34:08.222Z,10.55
2022-09-13T14:36:20.546Z,8.18
2022-09-13T14:38:33.246Z,6.50
2022-09-13T14:40:37.933Z,6.05
2022-09-13T14:42:42.953Z,5.40
2022-09-13T14:44:47.423Z,8.63
2022-09-13T14:46:56.377Z,4.82
2022-09-13T14:49:03.946Z,4.45
2022-09-13T14:51:15.643Z,5.97
2022-09-13T14:53:23.551Z,8.25
2022-09-13T14:55:32.519Z,5.60
2022-09-13T14:57:40.544Z,10.02
2022-09-13T14:59:48.414Z,6.15
2022-09-13T15:01:52.179Z,6.03
2022-09-13T15:03:59.797Z,38.10
2022-09-13T15:06:06.382Z,7.38
2022-09-13T15:08:41.449Z,7.03
2022-09-13T15:10:47.048Z,7.40
2022-09-13T15:12:53.161Z,6.60
2022-09-13T15:15:22.698Z,7.35
2022-09-13T15:17:26.431Z,6.53
2022-09-13T15:19:36.712Z,6.88
2022-09-13T15:21:40.418Z,7.22
2022-09-13T15:23:50.514Z,6.90
2022-09-13T15:25:58.379Z,9.50
2022-09-13T15:28:02.065Z,9.77
2022-09-13T15:30:07.854Z,4.03
2022-09-13T15:32:23.190Z,4.18
2022-09-13T15:34:28.498Z,9.57
2022-09-13T15:36:32.564Z,9.93
2022-09-13T15:38:36.879Z,4.30
2022-09-13T15:40:45.374Z,8.48
2022-09-13T15:42:54.459Z,4.93
2022-09-13T15:44:58.918Z,6.90
2022-09-13T15:47:05.176Z,6.82
2022-09-13T15:49:09.363Z,6.68
2022-09-13T15:51:15.683Z,5.35
2022-09-13T15:53:19.961Z,7.63
2022-09-13T15:55:24.584Z,6.97
2022-09-13T15:57:30.792Z,7.15
2022-09-13T15:59:36.409Z,9.25
2022-09-13T16:01:40.787Z,4.93
2022-09-13T16:03:45.266Z,5.65
2022-09-13T16:05:49.323Z,9.05
2022-09-13T16:07:55.192Z,7.00
2022-09-13T16:10:00.097Z,11.15
2022-09-13T16:12:04.872Z,7.30
2022-09-13T16:14:09.029Z,8.02
2022-09-13T16:16:16.905Z,5.07
2022-09-13T16:18:20.862Z,6.50
2022-09-13T16:20:25.021Z,8.02
2022-09-13T16:22:29.028Z,10.00
2022-09-13T16:24:32.923Z,2.63
2022-09-13T16:26:36.842Z,5.10
2022-09-13T16:28:41.633Z,9.63
2022-09-13T16:30:45.796Z,8.32
2022-09-13T16:32:51.418Z,5.53
2022-09-13T16:34:55.604Z,7.18
2022-09-13T16:36:59.788Z,7.07
2022-09-13T16:39:03.996Z,4.40
2022-09-13T16:41:08.931Z,7.32
2022-09-13T16:43:14.197Z,14.00
2022-09-13T16:45:18.744Z,8.02
2022-09-13T16:47:23.334Z,10.85
2022-09-13T16:49:29.519Z,11.23
2022-09-13T16:51:34.853Z,9.70
2022-09-13T16:53:41.633Z,8.07
2022-09-13T16:55:46.435Z,7.13
2022-09-13T16:57:52.674Z,12.63
2022-09-13T16:59:58.674Z,6.88
2022-09-13T17:02:02.835Z,8.07
2022-09-13T17:04:08.547Z,5.18
2022-09-13T17:06:16.461Z,8.25
2022-09-13T17:08:20.587Z,8.90
2022-09-13T17:10:25.676Z,10.55
2022-09-13T17:12:30.250Z,16.02
2022-09-13T17:14:34.701Z,6.28
2022-09-13T17:16:43.013Z,6.68
2022-09-13T17:18:47.498Z,6.93
2022-09-13T17:20:52.134Z,6.70
2022-09-13T17:22:57.499Z,8.45
2022-09-13T17:25:02.265Z,8.52
2022-09-13T17:27:07.121Z,13.20
2022-09-13T17:29:13.539Z,12.82
2022-09-13T17:31:17.562Z,7.85
2022-09-13T17:33:21.820Z,11.15
2022-09-13T17:35:25.865Z,6.97
2022-09-13T17:37:29.772Z,13.68
2022-09-13T17:39:34.902Z,7.78
2022-09-13T17:41:39.370Z,11.93
2022-09-13T17:43:44.345Z,10.18
2022-09-13T17:45:47.998Z,7.60
2022-09-13T17:47:54.689Z,6.97
2022-09-13T17:49:58.593Z,7.47
2022-09-13T17:52:02.551Z,9.73
2022-09-13T17:54:10.010Z,7.35
2022-09-13T17:56:21.558Z,10.07
2022-09-13T17:58:27.258Z,5.85
2022-09-13T18:00:31.810Z,7.28
2022-09-13T18:02:35.488Z,7.22
2022-09-13T18:04:39.448Z,5.18
2022-09-13T18:06:44.771Z,10.60
2022-09-13T18:08:48.962Z,11.43
2022-09-13T18:11:12.162Z,7.53
2022-09-13T18:13:18.482Z,7.22
2022-09-13T18:15:22.362Z,7.07
2022-09-13T18:17:26.159Z,7.05
2022-09-13T18:19:45.314Z,10.88
2022-09-13T18:21:49.350Z,15.32
2022-09-13T18:23:56.152Z,12.38
2022-09-13T18:26:03.012Z,8.40
2022-09-13T18:28:08.855Z,6.57
2022-09-13T18:30:14.799Z,11.88
2022-09-13T18:32:18.872Z,10.48
2022-09-13T18:34:27.435Z,7.72
2022-09-13T18:36:33.950Z,12.10
2022-09-13T18:38:39.373Z,7.07
2022-09-13T18:40:43.546Z,8.52
2022-09-13T18:42:47.824Z,10.88
2022-09-13T18:44:52.950Z,8.43
2022-09-13T18:46:58.491Z,9.10
2022-09-13T18:49:03.904Z,13.25
2022-09-13T18:51:10.162Z,10.88
2022-09-13T18:53:14.179Z,22.13
2022-09-13T18:55:18.167Z,35.40
2022-09-13T18:57:22.163Z,17.08
2022-09-13T18:59:26.343Z,28.10
2022-09-13T19:01:32.091Z,37.35
2022-09-13T19:03:40.492Z,30.92
2022-09-13T19:05:44.520Z,23.45
2022-09-13T19:07:48.395Z,11.52
2022-09-13T19:09:52.690Z,22.05
2022-09-13T19:11:56.387Z,21.08
2022-09-13T19:14:00.490Z,20.25
2022-09-13T19:16:07.916Z,24.90
2022-09-13T19:18:12.018Z,29.35
2022-09-13T19:20:17.827Z,29.80
2022-09-13T19:22:21.982Z,25.08
2022-09-13T19:24:26.702Z,19.35
2022-09-13T19:26:32.974Z,28.65
2022-09-13T19:28:36.798Z,42.80
2022-09-13T19:30:40.846Z,39.83
2022-09-13T19:32:44.926Z,52.97
2022-09-13T19:34:49.105Z,24.17
2022-09-13T19:36:58.310Z,24.90
2022-09-13T19:39:02.637Z,29.63
2022-09-13T19:41:09.262Z,21.08
2022-09-13T19:43:13.289Z,41.38
2022-09-13T19:45:17.669Z,40.85
2022-09-13T19:48:19.389Z,50.13
2022-09-13T19:49:49.928Z,36.70
2022-09-13T19:51:55.116Z,72.13
2022-09-13T19:54:00.041Z,64.63
2022-09-13T19:56:06.882Z,75.65
2022-09-13T19:58:10.974Z,67.10
2022-09-13T20:00:15.391Z,65.25
2022-09-13T20:02:19.771Z,59.05
2022-09-13T20:04:24.999Z,69.03
2022-09-13T20:06:30.460Z,73.07
2022-09-13T20:08:36.823Z,61.17
2022-09-13T20:10:40.790Z,55.33
2022-09-13T20:12:45.337Z,60.58
2022-09-13T20:14:49.188Z,50.03
2022-09-13T20:16:54.566Z,86.40
2022-09-13T20:18:58.551Z,93.63
2022-09-13T20:21:05.158Z,86.80
2022-09-13T20:23:08.957Z,101.88
2022-09-13T20:25:14.238Z,92.15
2022-09-13T20:27:19.118Z,103.60
2022-09-13T20:29:22.931Z,92.15
2022-09-13T20:31:27.655Z,82.68
2022-09-13T20:33:31.421Z,108.70
2022-09-13T20:35:38.115Z,98.13
2022-09-13T20:37:41.647Z,72.15
2022-09-13T20:39:45.671Z,80.18
2022-09-13T20:41:51.625Z,62.95
2022-09-13T20:43:56.250Z,57.08
2022-09-13T20:46:01.167Z,70.60
2022-09-13T20:48:05.593Z,60.60
2022-09-13T20:50:10.246Z,56.42
2022-09-13T20:52:14.838Z,57.90
2022-09-13T20:54:19.187Z,68.38
2022-09-13T20:56:24.016Z,55.45
2022-09-13T20:58:30.236Z,56.42
2022-09-13T21:00:34.555Z,76.53
2022-09-13T21:02:38.857Z,71.45
2022-09-13T21:04:42.803Z,88.00
2022-09-13T21:07:00.778Z,89.63
2022-09-13T21:09:05.059Z,84.90
2022-09-13T21:11:11.180Z,70.15
2022-09-13T21:13:15.570Z,56.55
2022-09-13T21:15:22.371Z,64.25
2022-09-13T21:17:27.211Z,54.03
2022-09-13T21:19:31.815Z,48.28
2022-09-13T21:21:38.620Z,51.08
2022-09-13T21:23:43.211Z,45.53
2022-09-13T21:25:47.480Z,35.85
2022-09-13T21:27:52.316Z,35.58
2022-09-13T21:29:56.904Z,34.35
2022-09-13T21:32:02.710Z,19.52
2022-09-13T21:34:08.869Z,15.57
2022-09-13T21:36:14.128Z,15.95
2022-09-13T21:38:18.760Z,18.83
2022-09-13T21:40:23.414Z,15.48
2022-09-13T21:42:28.584Z,17.30
2022-09-13T21:44:33.018Z,24.33
2022-09-13T21:46:39.005Z,28.17
2022-09-13T21:48:47.005Z,24.08
2022-09-13T21:50:51.904Z,26.48
2022-09-13T21:52:56.373Z,23.58
2022-09-13T21:55:00.487Z,19.92
2022-09-13T21:57:04.488Z,25.05
2022-09-13T21:59:10.828Z,34.42
2022-09-13T22:01:17.405Z,29.58
2022-09-13T22:03:21.965Z,31.23
2022-09-13T22:05:27.691Z,30.00
2022-09-13T22:07:33.826Z,34.65
2022-09-13T22:09:38.039Z,23.80
2022-09-13T22:11:43.958Z,27.42
2022-09-13T22:13:49.308Z,21.60
2022-09-13T22:15:53.498Z,34.30
2022-09-13T22:17:58.057Z,26.63
2022-09-13T22:20:02.186Z,27.65
2022-09-13T22:22:07.970Z,24.38
2022-09-13T22:24:16.335Z,19.95
2022-09-13T22:26:22.830Z,31.15
2022-09-13T22:28:27.433Z,33.45
2022-09-13T22:30:32.984Z,26.58
2022-09-13T22:32:37.740Z,26.08
2022-09-13T22:34:41.746Z,30.63
2022-09-13T22:36:46.678Z,22.23
2022-09-13T22:38:55.028Z,33.22
2022-09-13T22:41:00.800Z,31.77
2022-09-13T22:43:05.061Z,21.95
2022-09-13T22:45:09.895Z,31.50
2022-09-13T22:47:14.353Z,36.53
2022-09-13T22:49:20.651Z,28.23
2022-09-13T22:51:24.801Z,36.67
2022-09-13T22:53:30.364Z,21.02
2022-09-13T22:55:37.116Z,35.20
2022-09-13T22:57:41.158Z,34.53
2022-09-13T22:59:45.181Z,17.15
2022-09-13T23:01:50.196Z,29.30
2022-09-13T23:03:55.064Z,20.80
2022-09-13T23:05:59.541Z,28.08
2022-09-13T23:08:05.074Z,22.55
2022-09-13T23:10:10.685Z,25.38
2022-09-13T23:12:16.415Z,17.35
2022-09-13T23:14:21.769Z,17.17
2022-09-13T23:16:27.466Z,22.38
2022-09-13T23:18:33.413Z,17.75
2022-09-13T23:20:37.955Z,15.35
2022-09-13T23:22:42.924Z,30.08
2022-09-13T23:24:46.805Z,21.05
2022-09-13T23:26:50.736Z,20.00
2022-09-13T23:29:02.087Z,16.92
2022-09-13T23:31:11.701Z,42.72
2022-09-13T23:33:17.388Z,28.77
2022-09-13T23:35:21.572Z,22.42
2022-09-13T23:37:25.398Z,26.92
2022-09-13T23:39:30.091Z,23.52
2022-09-13T23:41:34.680Z,36.78
2022-09-13T23:43:38.774Z,26.30
2022-09-13T23:45:44.717Z,28.02
2022-09-13T23:47:48.311Z,28.73
2022-09-13T23:49:52.263Z,13.57
2022-09-13T23:51:55.781Z,28.85
2022-09-13T23:54:01.236Z,24.85
2022-09-13T23:56:05.737Z,22.13
2022-09-13T23:58:09.697Z,15.73
